
Distance (Route):
Temperature : 13.0°C
Humidity : 31.8%
Pressure : 745.9hPa| Receiver | Date | Latitude | Longitude | Direction | Speed | Altitude | Climb | Temperature | Humidity | Pressure | Voltage | Killtimer | Uptime | BKT | XDATA |
|---|---|---|---|---|---|---|---|---|---|---|---|---|---|---|---|
| AUTORXJP | 2026-09-05 02:07:55 | 43.56299 | 5.40839 | 132° | 44km/h | 2753m | -2.5m/s | 13.0°C | 31.8% | 745.9hPa | 0V | 00:00:00 | 00:00:00 | 00:00:00 | |
| AUTORXJP | 2026-09-05 02:07:24 | 43.56620 | 5.40334 | 132° | 42km/h | 2905m | -3.4m/s | 11.6°C | 0% | 732.5hPa | 0V | 00:00:00 | 00:00:00 | 00:00:00 | |
| AUTORXJP | 2026-09-05 02:06:53 | 43.56739 | 5.40147 | 128° | 44km/h | 2961m | -2.7m/s | 11.0°C | 34.3% | 727.6hPa | 0V | 00:00:00 | 00:00:00 | 00:00:00 | |
| AUTORXJP | 2026-09-05 02:06:22 | 43.56926 | 5.39840 | 128° | 42km/h | 3058m | -2.6m/s | 10.1°C | 35.1% | 719.4hPa | 0V | 00:00:00 | 00:00:00 | 00:00:00 | |
| AUTORXJP | 2026-09-05 02:05:51 | 43.57105 | 5.39491 | 121° | 40km/h | 3163m | -2.8m/s | 9.6°C | 27.5% | 710.3hPa | 0V | 00:00:00 | 00:00:00 | 00:00:00 | |
| AUTORXJP | 2026-09-05 02:05:20 | 43.57256 | 5.39163 | 122° | 37km/h | 3264m | -3.5m/s | 9.4°C | 19.3% | 701.4hPa | 0V | 00:00:00 | 00:00:00 | 00:00:00 | |
| AUTORXJP | 2026-09-05 02:04:49 | 43.57440 | 5.38824 | 128° | 38km/h | 3383m | -3.6m/s | 8.5°C | 20.4% | 691.2hPa | 0V | 00:00:00 | 00:00:00 | 00:00:00 | |
| AUTORXJP | 2026-09-05 02:04:18 | 43.57628 | 5.38544 | 139° | 38km/h | 3493m | -1.9m/s | 7.6°C | 21.3% | 682.1hPa | 0V | 00:00:00 | 00:00:00 | 00:00:00 | |
| AUTORXJP | 2026-09-05 02:03:47 | 43.57839 | 5.38244 | 138° | 37km/h | 3612m | -4.3m/s | 6.8°C | 21.2% | 672.3hPa | 0V | 00:00:00 | 00:00:00 | 00:00:00 | |
| AUTORXJP | 2026-09-05 02:03:16 | 43.58064 | 5.37962 | 144° | 40km/h | 3726m | -4.0m/s | 6.0°C | 22.2% | 662.6hPa | 0V | 00:00:00 | 00:00:00 | 00:00:00 | |
| AUTORXJP | 2026-09-05 02:02:44 | 43.58318 | 5.37689 | 135° | 38km/h | 3843m | -4.2m/s | 5.6°C | 16.6% | 653.5hPa | 0V | 00:00:00 | 00:00:00 | 00:00:00 | |
| AUTORXJP | 2026-09-05 02:02:13 | 43.58551 | 5.37347 | 133° | 44km/h | 3954m | -3.2m/s | 5.3°C | 14.2% | 644.5hPa | 0V | 00:00:00 | 00:00:00 | 00:00:00 | |
| AUTORXJP | 2026-09-05 02:01:42 | 43.58796 | 5.36928 | 127° | 51km/h | 4065m | -2.7m/s | 5.1°C | 12.0% | 635.8hPa | 0V | 00:00:00 | 00:00:00 | 00:00:00 | |
| AUTORXJP | 2026-09-05 02:01:11 | 43.59063 | 5.36447 | 127° | 55km/h | 4180m | -2.3m/s | 5.1°C | 11.2% | 627.0hPa | 0V | 00:00:00 | 00:00:00 | 00:00:00 | |
| AUTORXJP | 2026-09-05 02:00:40 | 43.59317 | 5.35955 | 124° | 53km/h | 4288m | -2.6m/s | 4.5°C | 11.3% | 618.5hPa | 0V | 00:00:00 | 00:00:00 | 00:00:00 | |
| AUTORXJP | 2026-09-05 02:00:09 | 43.59549 | 5.35469 | 120° | 57km/h | 4404m | -2.5m/s | 4.2°C | 11.8% | 609.8hPa | 0V | 00:00:00 | 00:00:00 | 00:00:00 | |
| AUTORXJP | 2026-09-05 01:59:38 | 43.59784 | 5.34973 | 122° | 57km/h | 4521m | -3.9m/s | 3.8°C | 13.3% | 601.0hPa | 0V | 00:00:00 | 00:00:00 | 00:00:00 | |
| AUTORXJP | 2026-09-05 01:59:07 | 43.59999 | 5.34454 | 119° | 57km/h | 4646m | -3.3m/s | 2.9°C | 15.4% | 592.0hPa | 0V | 00:00:00 | 00:00:00 | 00:00:00 | |
| AUTORXJP | 2026-09-05 01:58:36 | 43.60197 | 5.33965 | 120° | 53km/h | 4770m | -3.2m/s | 2.3°C | 13.9% | 582.7hPa | 0V | 00:00:00 | 00:00:00 | 00:00:00 | |
| AUTORXJP | 2026-09-05 01:58:05 | 43.60396 | 5.33478 | 119° | 49km/h | 4903m | -3.6m/s | 1.3°C | 17.7% | 573.1hPa | 0V | 00:00:00 | 00:00:00 | 00:00:00 | |
| AUTORXJP | 2026-09-05 01:57:34 | 43.60561 | 5.33012 | 114° | 46km/h | 5036m | -2.6m/s | 0.1°C | 21.0% | 563.7hPa | 0V | 00:00:00 | 00:00:00 | 00:00:00 | |
| AUTORXJP | 2026-09-05 01:57:03 | 43.60689 | 5.32554 | 114° | 46km/h | 5167m | -4.2m/s | -1.1°C | 23.7% | 554.5hPa | 0V | 00:00:00 | 00:00:00 | 00:00:00 | |
| AUTORXJP | 2026-09-05 01:56:31 | 43.60813 | 5.32117 | 114° | 44km/h | 5297m | -3.0m/s | -2.3°C | 26.0% | 545.5hPa | 0V | 00:00:00 | 00:00:00 | 00:00:00 | |
| AUTORXJP | 2026-09-05 01:56:00 | 43.60946 | 5.31705 | 111° | 42km/h | 5425m | -3.7m/s | -3.2°C | 25.2% | 536.6hPa | 0V | 00:00:00 | 00:00:00 | 00:00:00 | |
| AUTORXJP | 2026-09-05 01:55:29 | 43.61088 | 5.31290 | 122° | 40km/h | 5553m | -2.8m/s | -4.2°C | 24.1% | 528.0hPa | 0V | 00:00:00 | 00:00:00 | 00:00:00 | |
| AUTORXJP | 2026-09-05 01:54:58 | 43.61247 | 5.30902 | 122° | 38km/h | 5686m | -2.0m/s | -5.0°C | 23.2% | 519.2hPa | 0V | 00:00:00 | 00:00:00 | 00:00:00 | |
| AUTORXJP | 2026-09-05 01:54:27 | 43.61396 | 5.30563 | 125° | 33km/h | 5812m | -3.0m/s | -6.1°C | 24.5% | 510.8hPa | 0V | 00:00:00 | 00:00:00 | 00:00:00 | |
| AUTORXJP | 2026-09-05 01:53:56 | 43.61529 | 5.30203 | 115° | 37km/h | 5942m | -3.2m/s | -7.4°C | 25.7% | 502.3hPa | 0V | 00:00:00 | 00:00:00 | 00:00:00 | |
| AUTORXJP | 2026-09-05 01:53:25 | 43.61653 | 5.29825 | 112° | 37km/h | 6071m | -4.2m/s | -8.5°C | 26.1% | 493.9hPa | 0V | 00:00:00 | 00:00:00 | 00:00:00 | |
| AUTORXJP | 2026-09-05 01:52:54 | 43.61774 | 5.29450 | 119° | 40km/h | 6204m | -3.7m/s | -9.3°C | 22.2% | 485.4hPa | 0V | 00:00:00 | 00:00:00 | 00:00:00 | |
| AUTORXJP | 2026-09-05 01:52:23 | 43.61914 | 5.29070 | 109° | 40km/h | 6340m | -3.4m/s | -10.3°C | 20.3% | 477.0hPa | 0V | 00:00:00 | 00:00:00 | 00:00:00 | |
| AUTORXJP | 2026-09-05 01:51:52 | 43.62061 | 5.28660 | 116° | 44km/h | 6470m | -4.3m/s | -11.0°C | 26.4% | 468.8hPa | 0V | 00:00:00 | 00:00:00 | 00:00:00 | |
| AUTORXJP | 2026-09-05 01:51:21 | 43.62223 | 5.28194 | 117° | 51km/h | 6603m | -3.9m/s | -12.2°C | 29.2% | 460.9hPa | 0V | 00:00:00 | 00:00:00 | 00:00:00 | |
| AUTORXJP | 2026-09-05 01:50:50 | 43.62388 | 5.27703 | 116° | 51km/h | 6733m | -2.9m/s | -13.3°C | 31.1% | 453.0hPa | 0V | 00:00:00 | 00:00:00 | 00:00:00 | |
| AUTORXJP | 2026-09-05 01:50:19 | 43.62551 | 5.27194 | 110° | 55km/h | 6862m | -4.0m/s | -14.4°C | 32.0% | 445.2hPa | 0V | 00:00:00 | 00:00:00 | 00:00:00 | |
| AUTORXJP | 2026-09-05 01:49:48 | 43.62685 | 5.26674 | 104° | 47km/h | 7000m | -3.4m/s | -15.2°C | 27.6% | 437.3hPa | 0V | 00:00:00 | 00:00:00 | 00:00:00 | |
| AUTORXJP | 2026-09-05 01:48:45 | 43.62891 | 5.25584 | 102° | 51km/h | 7279m | -4.4m/s | -17.6°C | 31.1% | 421.3hPa | 0V | 00:00:00 | 00:00:00 | 00:00:00 | |
| AUTORXJP | 2026-09-05 01:48:14 | 43.62988 | 5.24986 | 101° | 57km/h | 7426m | -3.3m/s | -19.0°C | 31.1% | 413.0hPa | 0V | 00:00:00 | 00:00:00 | 00:00:00 | |
| AUTORXJP | 2026-09-05 01:47:43 | 43.63079 | 5.24374 | 102° | 58km/h | 7571m | -4.7m/s | -20.3°C | 32.6% | 405.0hPa | 0V | 00:00:00 | 00:00:00 | 00:00:00 | |
| AUTORXJP | 2026-09-05 01:47:12 | 43.63154 | 5.23779 | 101° | 55km/h | 7720m | -3.7m/s | -21.4°C | 30.9% | 396.9hPa | 0V | 00:00:00 | 00:00:00 | 00:00:00 | |
| AUTORXJP | 2026-09-05 01:46:10 | 43.63334 | 5.22595 | 100° | 55km/h | 8007m | -3.3m/s | -24.0°C | 32.2% | 381.4hPa | 0V | 00:00:00 | 00:00:00 | 00:00:00 | |
| AUTORXJP | 2026-09-05 01:45:39 | 43.63454 | 5.21975 | 109° | 57km/h | 8151m | -4.0m/s | -25.2°C | 29.0% | 374.0hPa | 0V | 00:00:00 | 00:00:00 | 00:00:00 | |
| AUTORXJP | 2026-09-05 01:45:09 | 43.63583 | 5.21335 | 104° | 64km/h | 8299m | -4.9m/s | -26.4°C | 29.5% | 366.5hPa | 0V | 00:00:00 | 00:00:00 | 00:00:00 | |
| AUTORXJP | 2026-09-05 01:44:37 | 43.63701 | 5.20676 | 104° | 62km/h | 8450m | -4.5m/s | -27.8°C | 30.5% | 358.9hPa | 0V | 00:00:00 | 00:00:00 | 00:00:00 | |
| AUTORXJP | 2026-09-05 01:44:06 | 43.63830 | 5.20029 | 105° | 57km/h | 8602m | -5.3m/s | -29.2°C | 31.5% | 351.3hPa | 0V | 00:00:00 | 00:00:00 | 00:00:00 | |
| AUTORXJP | 2026-09-05 01:43:35 | 43.63961 | 5.19390 | 104° | 60km/h | 8756m | -5.2m/s | -30.6°C | 30.1% | 343.6hPa | 0V | 00:00:00 | 00:00:00 | 00:00:00 | |
| AUTORXJP | 2026-09-05 01:43:04 | 43.64095 | 5.18753 | 104° | 58km/h | 8915m | -4.8m/s | -32.0°C | 34.3% | 336.1hPa | 0V | 00:00:00 | 00:00:00 | 00:00:00 | |
| AUTORXJP | 2026-09-05 01:42:33 | 43.64220 | 5.18116 | 107° | 62km/h | 9070m | -5.0m/s | -33.4°C | 36.3% | 328.6hPa | 0V | 00:00:00 | 00:00:00 | 00:00:00 | |
| AUTORXJP | 2026-09-05 01:42:01 | 43.64334 | 5.17454 | 103° | 62km/h | 9227m | -4.0m/s | -34.9°C | 36.5% | 321.5hPa | 0V | 00:00:00 | 00:00:00 | 00:00:00 | |
| AUTORXJP | 2026-09-05 01:41:30 | 43.64460 | 5.16850 | 114° | 55km/h | 9376m | -3.9m/s | -36.0°C | 30.3% | 314.4hPa | 0V | 00:00:00 | 00:00:00 | 00:00:00 | |
| AUTORXJP | 2026-09-05 01:40:59 | 43.64638 | 5.16265 | 116° | 60km/h | 9545m | -2.8m/s | -36.5°C | 20.8% | 307.2hPa | 0V | 00:00:00 | 00:00:00 | 00:00:00 | |
| AUTORXJP | 2026-09-05 01:40:28 | 43.64880 | 5.15639 | 117° | 62km/h | 9695m | -3.7m/s | -36.9°C | 19.4% | 300.4hPa | 0V | 00:00:00 | 00:00:00 | 00:00:00 | |
| AUTORXJP | 2026-09-05 01:39:57 | 43.65100 | 5.15058 | 117° | 53km/h | 9854m | -4.1m/s | -38.1°C | 20.0% | 293.6hPa | 0V | 00:00:00 | 00:00:00 | 00:00:00 | |
| AUTORXJP | 2026-09-05 01:39:26 | 43.65268 | 5.14570 | 116° | 44km/h | 10017m | -3.5m/s | -39.4°C | 21.1% | 286.7hPa | 0V | 00:00:00 | 00:00:00 | 00:00:00 | |
| AUTORXJP | 2026-09-05 01:38:55 | 43.65400 | 5.14172 | 108° | 37km/h | 10178m | -2.5m/s | -40.8°C | 21.9% | 279.8hPa | 0V | 00:00:00 | 00:00:00 | 00:00:00 | |
| AUTORXJP | 2026-09-05 01:38:24 | 43.65523 | 5.13794 | 116° | 37km/h | 10349m | -6.1m/s | -42.0°C | 23.3% | 272.8hPa | 0V | 00:00:00 | 00:00:00 | 00:00:00 | |
| AUTORXJP | 2026-09-05 01:37:53 | 43.65681 | 5.13371 | 119° | 44km/h | 10528m | -4.2m/s | -43.2°C | 23.6% | 265.6hPa | 0V | 00:00:00 | 00:00:00 | 00:00:00 | |
| AUTORXJP | 2026-09-05 01:37:22 | 43.65879 | 5.12937 | 125° | 47km/h | 10718m | -4.3m/s | -44.7°C | 23.3% | 258.3hPa | 0V | 00:00:00 | 00:00:00 | 00:00:00 | |
| AUTORXJP | 2026-09-05 01:36:51 | 43.66140 | 5.12470 | 131° | 57km/h | 10912m | -4.9m/s | -46.0°C | 23.1% | 250.9hPa | 0V | 00:00:00 | 00:00:00 | 00:00:00 | |
| AUTORXJP | 2026-09-05 01:36:20 | 43.66442 | 5.12036 | 131° | 49km/h | 11103m | -6.4m/s | -47.4°C | 23.7% | 243.7hPa | 0V | 00:00:00 | 00:00:00 | 00:00:00 | |
| AUTORXJP | 2026-09-05 01:35:49 | 43.66710 | 5.11680 | 132° | 44km/h | 11289m | -6.1m/s | -48.9°C | 24.1% | 236.9hPa | 0V | 00:00:00 | 00:00:00 | 00:00:00 | |
| AUTORXJP | 2026-09-05 01:35:18 | 43.66954 | 5.11402 | 146° | 37km/h | 11465m | -4.8m/s | -50.0°C | 24.1% | 230.6hPa | 0V | 00:00:00 | 00:00:00 | 00:00:00 | |
| AUTORXJP | 2026-09-05 01:34:46 | 43.67165 | 5.11242 | 157° | 26km/h | 11640m | -6.3m/s | -51.3°C | 23.4% | 224.4hPa | 0V | 00:00:00 | 00:00:00 | 00:00:00 | |
| AUTORXJP | 2026-09-05 01:34:15 | 43.67333 | 5.11122 | 136° | 18km/h | 11816m | -6.1m/s | -52.7°C | 21.6% | 218.3hPa | 0V | 00:00:00 | 00:00:00 | 00:00:00 | |
| AUTORXJP | 2026-09-05 01:33:44 | 43.67506 | 5.10907 | 140° | 38km/h | 11997m | -5.8m/s | -53.7°C | 20.1% | 212.3hPa | 0V | 00:00:00 | 00:00:00 | 00:00:00 | |
| AUTORXJP | 2026-09-05 01:33:13 | 43.67707 | 5.10584 | 125° | 37km/h | 12168m | -5.1m/s | -53.5°C | 19.8% | 206.8hPa | 0V | 00:00:00 | 00:00:00 | 00:00:00 | |
| AUTORXJP | 2026-09-05 01:32:42 | 43.67838 | 5.10215 | 103° | 33km/h | 12347m | -4.9m/s | -54.7°C | 19.3% | 200.9hPa | 0V | 00:00:00 | 00:00:00 | 00:00:00 | |
| AUTORXJP | 2026-09-05 01:32:11 | 43.67914 | 5.09790 | 101° | 44km/h | 12537m | -5.5m/s | -55.7°C | 18.7% | 195.1hPa | 0V | 00:00:00 | 00:00:00 | 00:00:00 | |
| AUTORXJP | 2026-09-05 01:31:40 | 43.68035 | 5.09300 | 113° | 53km/h | 12735m | -6.5m/s | -56.7°C | 17.8% | 189.0hPa | 0V | 00:00:00 | 00:00:00 | 00:00:00 | |
| AUTORXJP | 2026-09-05 01:31:09 | 43.68204 | 5.08803 | 109° | 49km/h | 12951m | -6.4m/s | -58.0°C | 16.6% | 182.6hPa | 0V | 00:00:00 | 00:00:00 | 00:00:00 | |
| AUTORXJP | 2026-09-05 01:30:38 | 43.68325 | 5.08284 | 108° | 44km/h | 13162m | -7.3m/s | -58.8°C | 15.4% | 176.5hPa | 0V | 00:00:00 | 00:00:00 | 00:00:00 | |
| AUTORXJP | 2026-09-05 01:30:07 | 43.68430 | 5.07791 | 104° | 42km/h | 13376m | -6.9m/s | -60.1°C | 13.5% | 170.6hPa | 0V | 00:00:00 | 00:00:00 | 00:00:00 | |
| AUTORXJP | 2026-09-05 01:29:36 | 43.68503 | 5.07378 | 100° | 38km/h | 13593m | -8.4m/s | -61.6°C | 11.2% | 164.7hPa | 0V | 00:00:00 | 00:00:00 | 00:00:00 | |
| AUTORXJP | 2026-09-05 01:29:05 | 43.68550 | 5.07008 | 99° | 37km/h | 13814m | -7.7m/s | -62.4°C | 8.8% | 158.9hPa | 0V | 00:00:00 | 00:00:00 | 00:00:00 | |
| AUTORXJP | 2026-09-05 01:28:34 | 43.68596 | 5.06576 | 94° | 44km/h | 14036m | -8.9m/s | -63.3°C | 6.4% | 153.2hPa | 0V | 00:00:00 | 00:00:00 | 00:00:00 | |
| AUTORXJP | 2026-09-05 01:28:03 | 43.68591 | 5.06103 | 80° | 40km/h | 14257m | -8.4m/s | -64.6°C | 4.2% | 147.8hPa | 0V | 00:00:00 | 00:00:00 | 00:00:00 | |
| AUTORXJP | 2026-09-05 01:27:32 | 43.68533 | 5.05618 | 84° | 49km/h | 14479m | -7.9m/s | -64.5°C | 2.8% | 142.4hPa | 0V | 00:00:00 | 00:00:00 | 00:00:00 | |
| AUTORXJP | 2026-09-05 01:27:00 | 43.68598 | 5.05033 | 116° | 51km/h | 14712m | -6.9m/s | -62.9°C | 1.9% | 137.2hPa | 0V | 00:00:00 | 00:00:00 | 00:00:00 | |
| AUTORXJP | 2026-09-05 01:26:29 | 43.68753 | 5.04617 | 119° | 38km/h | 14946m | -7.9m/s | -63.2°C | 1.2% | 132.0hPa | 0V | 00:00:00 | 00:00:00 | 00:00:00 | |
| AUTORXJP | 2026-09-05 01:25:58 | 43.68863 | 5.04160 | 109° | 49km/h | 15203m | -7.1m/s | -62.7°C | 0.7% | 126.6hPa | 0V | 00:00:00 | 00:00:00 | 00:00:00 | |
| AUTORXJP | 2026-09-05 01:25:27 | 43.68974 | 5.03717 | 95° | 37km/h | 15465m | -7.8m/s | -63.8°C | 0.2% | 121.3hPa | 0V | 00:00:00 | 00:00:00 | 00:00:00 | |
| AUTORXJP | 2026-09-05 01:24:56 | 43.68985 | 5.03260 | 102° | 44km/h | 15732m | -8.3m/s | -63.6°C | 0.0% | 116.1hPa | 0V | 00:00:00 | 00:00:00 | 00:00:00 | |
| AUTORXJP | 2026-09-05 01:24:25 | 43.69076 | 5.02817 | 96° | 37km/h | 16008m | -8.5m/s | -62.9°C | 0.0% | 111.0hPa | 0V | 00:00:00 | 00:00:00 | 00:00:00 | |
| AUTORXJP | 2026-09-05 01:23:54 | 43.69119 | 5.02429 | 97° | 31km/h | 16285m | -7.9m/s | -62.6°C | 0.0% | 106.0hPa | 0V | 00:00:00 | 00:00:00 | 00:00:00 | |
| AUTORXJP | 2026-09-05 01:23:23 | 43.69120 | 5.02104 | 85° | 26km/h | 16565m | -8.5m/s | -62.8°C | 0.0% | 101.3hPa | 0V | 00:00:00 | 00:00:00 | 00:00:00 | |
| AUTORXJP | 2026-09-05 01:22:52 | 43.69078 | 5.01697 | 85° | 40km/h | 16853m | -8.3m/s | -63.0°C | 0.0% | 96.6hPa | 0V | 00:00:00 | 00:00:00 | 00:00:00 | |
| AUTORXJP | 2026-09-05 01:22:21 | 43.69090 | 5.01229 | 91° | 49km/h | 17144m | -8.4m/s | -61.5°C | 0.0% | 92.1hPa | 0V | 00:00:00 | 00:00:00 | 00:00:00 | |
| AUTORXJP | 2026-09-05 01:21:50 | 43.69178 | 5.00640 | 111° | 58km/h | 17446m | -9.8m/s | -61.0°C | 0.0% | 87.8hPa | 0V | 00:00:00 | 00:00:00 | 00:00:00 | |
| AUTORXJP | 2026-09-05 01:20:47 | 43.69572 | 4.99889 | 125° | 20km/h | 18071m | -9.6m/s | -60.2°C | 0.0% | 79.2hPa | 0V | 00:00:00 | 00:00:00 | 00:00:00 | |
| AUTORXJP | 2026-09-05 01:20:16 | 43.69613 | 4.99755 | 94° | 24km/h | 18406m | -11.8m/s | -60.4°C | 0.0% | 75.0hPa | 0V | 00:00:00 | 00:00:00 | 00:00:00 | |
| AUTORXJP | 2026-09-05 01:19:45 | 43.69673 | 4.99653 | 153° | 4km/h | 18748m | -9.0m/s | -59.4°C | 0.0% | 71.0hPa | 0V | 00:00:00 | 00:00:00 | 00:00:00 | |
| AUTORXJP | 2026-09-05 01:19:14 | 43.69674 | 4.99507 | 134° | 22km/h | 19109m | -10.6m/s | -58.7°C | 0.0% | 67.0hPa | 0V | 00:00:00 | 00:00:00 | 00:00:00 | |
| AUTORXJP | 2026-09-05 01:18:43 | 43.69789 | 4.99430 | 211° | 4km/h | 19478m | -11.3m/s | -58.8°C | 0.0% | 63.2hPa | 0V | 00:00:00 | 00:00:00 | 00:00:00 | |
| AUTORXJP | 2026-09-05 01:18:12 | 43.69768 | 4.99358 | 92° | 13km/h | 19860m | -11.9m/s | -59.1°C | 0.0% | 59.4hPa | 0V | 00:00:00 | 00:00:00 | 00:00:00 | |
| AUTORXJP | 2026-09-05 01:17:41 | 43.69881 | 4.99293 | 200° | 13km/h | 20247m | -12.2m/s | -57.9°C | 0.0% | 55.8hPa | 0V | 00:00:00 | 00:00:00 | 00:00:00 | |
| AUTORXJP | 2026-09-05 01:17:10 | 43.69845 | 4.99270 | 79° | 16km/h | 20648m | -12.4m/s | -58.1°C | 0.0% | 52.3hPa | 0V | 00:00:00 | 00:00:00 | 00:00:00 | |
| AUTORXJP | 2026-09-05 01:16:39 | 43.69872 | 4.99182 | 45° | 4km/h | 21049m | -12.8m/s | -55.7°C | 0.0% | 49.0hPa | 0V | 00:00:00 | 00:00:00 | 00:00:00 | |
| AUTORXJP | 2026-09-05 01:16:08 | 43.69867 | 4.99078 | 91° | 18km/h | 21464m | -13.0m/s | -55.6°C | 0.0% | 45.9hPa | 0V | 00:00:00 | 00:00:00 | 00:00:00 | |
| AUTORXJP | 2026-09-05 01:15:37 | 43.69906 | 4.98975 | 146° | 13km/h | 21872m | -13.1m/s | -54.3°C | 0.0% | 43.0hPa | 0V | 00:00:00 | 00:00:00 | 00:00:00 | |
| AUTORXJP | 2026-09-05 01:15:06 | 43.70041 | 4.98852 | 193° | 20km/h | 22294m | -10.9m/s | -53.5°C | 0.0% | 40.2hPa | 0V | 00:00:00 | 00:00:00 | 00:00:00 | |
| AUTORXJP | 2026-09-05 01:14:34 | 43.70265 | 4.98885 | 199° | 26km/h | 22710m | -12.9m/s | -54.1°C | 0.0% | 37.6hPa | 0V | 00:00:00 | 00:00:00 | 00:00:00 | |
| AUTORXJP | 2026-09-05 01:14:03 | 43.70386 | 4.99036 | 191° | 26km/h | 23166m | -14.4m/s | -54.4°C | 0.0% | 34.9hPa | 0V | 00:00:00 | 00:00:00 | 00:00:00 | |
| DB0UT-7 | 2026-09-05 01:13:50 | 43.70452 | 4.99080 | 240° | 20km/h | 23380m | -16.0m/s | 0°C | 0% | 0hPa | 0V | 00:00:00 | 00:00:00 | 00:00:00 | |
| AUTORXJP | 2026-09-05 01:13:32 | 43.70445 | 4.99191 | 293° | 18km/h | 23686m | -15.4m/s | -54.8°C | 0.0% | 32.1hPa | 0V | 00:00:00 | 00:00:00 | 00:00:00 | |
| AUTORXJP | 2026-09-05 01:13:01 | 43.70428 | 4.99282 | 252° | 15km/h | 24194m | -15.1m/s | -54.3°C | 0.0% | 29.6hPa | 0V | 00:00:00 | 00:00:00 | 00:00:00 | |
| DB0UT-7 | 2026-09-05 01:12:51 | 43.70423 | 4.99320 | 314° | 22km/h | 24347m | -16.5m/s | 0°C | 0% | 0hPa | 0V | 00:00:00 | 00:00:00 | 00:00:00 | |
| AUTORXJP | 2026-09-05 01:12:30 | 43.70374 | 4.99373 | 283° | 26km/h | 24740m | -15.9m/s | -52.8°C | 0.0% | 27.1hPa | 0V | 00:00:00 | 00:00:00 | 00:00:00 | |
| DB0UT-7 | 2026-09-05 01:12:11 | 43.70282 | 4.99376 | 144° | 22km/h | 25043m | -15.9m/s | 0°C | 0% | 0hPa | 0V | 00:00:00 | 00:00:00 | 00:00:00 | |
| AUTORXJP | 2026-09-05 01:11:59 | 43.70291 | 4.99384 | 232° | 49km/h | 25256m | -13.4m/s | -50.9°C | 0.0% | 25.0hPa | 0V | 00:00:00 | 00:00:00 | 00:00:00 | |
| AUTORXJP | 2026-09-05 01:11:28 | 43.70204 | 4.99518 | 232° | 42km/h | 25774m | -16.9m/s | -49.9°C | 0.0% | 23.0hPa | 0V | 00:00:00 | 00:00:00 | 00:00:00 | |
| AUTORXJP | 2026-09-05 01:10:57 | 43.70072 | 4.99594 | 129° | 44km/h | 26316m | -18.9m/s | -47.6°C | 0.0% | 21.1hPa | 0V | 00:00:00 | 00:00:00 | 00:00:00 | |
| AUTORXJP | 2026-09-05 01:10:26 | 43.69975 | 4.99696 | 51° | 53km/h | 26899m | -18.6m/s | -48.2°C | 0.0% | 19.2hPa | 0V | 00:00:00 | 00:00:00 | 00:00:00 | |
| AUTORXJP | 2026-09-05 01:09:55 | 43.69939 | 4.99645 | 214° | 15km/h | 27496m | -18.7m/s | -47.3°C | 0.0% | 17.5hPa | 0V | 00:00:00 | 00:00:00 | 00:00:00 | |
| AUTORXJP | 2026-09-05 01:09:24 | 43.70029 | 4.99477 | 184° | 24km/h | 28089m | -16.4m/s | -44.7°C | 0.0% | 15.9hPa | 0V | 00:00:00 | 00:00:00 | 00:00:00 | |
| AUTORXJP | 2026-09-05 01:08:53 | 43.70083 | 4.99380 | 277° | 37km/h | 28684m | -17.7m/s | -44.5°C | 0.0% | 14.5hPa | 0V | 00:00:00 | 00:00:00 | 00:00:00 | |
| AUTORXJP | 2026-09-05 01:08:21 | 43.70120 | 4.99348 | 273° | 35km/h | 29269m | -17.6m/s | -45.0°C | 0.0% | 13.2hPa | 0V | 00:00:00 | 00:00:00 | 00:00:00 | |
| AUTORXJP | 2026-09-05 01:07:50 | 43.70106 | 4.99475 | 36° | 5km/h | 30410m | -33.5m/s | -42.8°C | 0.0% | 11.0hPa | 0V | 00:00:00 | 00:00:00 | 00:00:00 | |
| AUTORXJP | 2026-09-05 01:07:19 | 43.70146 | 4.99480 | 243° | 27km/h | 31260m | -29.2m/s | -40.4°C | 0.0% | 9.6hPa | 0V | 00:00:00 | 00:00:00 | 00:00:00 | |
| AUTORXJP | 2026-09-05 01:06:48 | 43.70116 | 4.99627 | 306° | 16km/h | 31397m | 6.0m/s | -41.2°C | 0.0% | 9.3hPa | 0V | 00:00:00 | 00:00:00 | 00:00:00 | |
| AUTORXJP | 2026-09-05 01:06:17 | 43.70110 | 4.99789 | 245° | 24km/h | 31251m | 3.7m/s | -41.7°C | 0.0% | 9.6hPa | 0V | 00:00:00 | 00:00:00 | 00:00:00 | |
| AUTORXJP | 2026-09-05 01:05:46 | 43.70188 | 4.99915 | 209° | 31km/h | 31099m | 3.5m/s | -42.4°C | 0.0% | 9.8hPa | 0V | 00:00:00 | 00:00:00 | 00:00:00 | |
| AUTORXJP | 2026-09-05 01:05:15 | 43.70287 | 4.99879 | 166° | 31km/h | 30942m | 3.9m/s | -43.3°C | 0.0% | 10.1hPa | 0V | 00:00:00 | 00:00:00 | 00:00:00 | |
| AUTORXJP | 2026-09-05 01:04:44 | 43.70353 | 4.99728 | 80° | 18km/h | 30781m | 6.2m/s | -43.8°C | 0.0% | 10.3hPa | 0V | 00:00:00 | 00:00:00 | 00:00:00 | |
| AUTORXJP | 2026-09-05 01:04:13 | 43.70360 | 4.99605 | 70° | 5km/h | 30614m | 4.0m/s | -43.7°C | 0.0% | 10.6hPa | 0V | 00:00:00 | 00:00:00 | 00:00:00 | |
| AUTORXJP | 2026-09-05 01:03:42 | 43.70273 | 4.99621 | 238° | 18km/h | 30440m | 6.3m/s | -43.7°C | 0.0% | 10.9hPa | 0V | 00:00:00 | 00:00:00 | 00:00:00 | |
| AUTORXJP | 2026-09-05 01:03:11 | 43.70253 | 4.99729 | 257° | 29km/h | 30261m | 6.5m/s | -44.0°C | 0.0% | 11.2hPa | 0V | 00:00:00 | 00:00:00 | 00:00:00 | |
| AUTORXJP | 2026-09-05 01:02:08 | 43.70340 | 4.99882 | 200° | 16km/h | 29890m | 6.7m/s | -43.7°C | 0.0% | 12.0hPa | 0V | 00:00:00 | 00:00:00 | 00:00:00 | |
| DB0UT-7 | 2026-09-05 01:01:51 | 43.70369 | 4.99893 | 131° | 16km/h | 29788m | 5.1m/s | 0°C | 0% | 0hPa | 0V | 00:00:00 | 00:00:00 | 00:00:00 | |
| AUTORXJP | 2026-09-05 01:01:37 | 43.70364 | 4.99873 | 195° | 2km/h | 29706m | 5.6m/s | -44.2°C | 0.0% | 12.3hPa | 0V | 00:00:00 | 00:00:00 | 00:00:00 | |
| AUTORXJP | 2026-09-05 01:01:06 | 43.70357 | 4.99982 | 242° | 4km/h | 29516m | 6.5m/s | -43.9°C | 0.0% | 12.7hPa | 0V | 00:00:00 | 00:00:00 | 00:00:00 | |
| DB0UT-7 | 2026-09-05 01:00:43 | 43.70390 | 5.00086 | 232° | 15km/h | 29389m | 7.0m/s | 0°C | 0% | 0hPa | 0V | 00:00:00 | 00:00:00 | 00:00:00 | |
| AUTORXJP | 2026-09-05 01:00:35 | 43.70407 | 5.00115 | 243° | 13km/h | 29338m | 6.0m/s | -44.9°C | 0.0% | 13.1hPa | 0V | 00:00:00 | 00:00:00 | 00:00:00 | |
| AUTORXJP | 2026-09-05 01:00:04 | 43.70444 | 5.00162 | 310° | 7km/h | 29169m | 5.7m/s | -44.9°C | 0.0% | 13.4hPa | 0V | 00:00:00 | 00:00:00 | 00:00:00 | |
| AUTORXJP | 2026-09-05 00:59:33 | 43.70449 | 5.00174 | 209° | 16km/h | 29005m | 5.6m/s | -44.5°C | 0.0% | 13.8hPa | 0V | 00:00:00 | 00:00:00 | 00:00:00 | |
| AUTORXJP | 2026-09-05 00:59:02 | 43.70544 | 5.00206 | 164° | 11km/h | 28838m | 4.0m/s | -44.7°C | 0.0% | 14.2hPa | 0V | 00:00:00 | 00:00:00 | 00:00:00 | |
| AUTORXJP | 2026-09-05 00:58:31 | 43.70598 | 5.00166 | 22° | 4km/h | 28673m | 4.6m/s | -44.2°C | 0.0% | 14.5hPa | 0V | 00:00:00 | 00:00:00 | 00:00:00 | |
| AUTORXJP | 2026-09-05 00:58:00 | 43.70620 | 5.00180 | 66° | 4km/h | 28509m | 5.1m/s | -44.3°C | 0.0% | 14.9hPa | 0V | 00:00:00 | 00:00:00 | 00:00:00 | |
| AUTORXJP | 2026-09-05 00:57:29 | 43.70598 | 5.00187 | 331° | 7km/h | 28345m | 5.5m/s | -44.9°C | 0.0% | 15.3hPa | 0V | 00:00:00 | 00:00:00 | 00:00:00 | |
| AUTORXJP | 2026-09-05 00:56:58 | 43.70569 | 5.00145 | 90° | 11km/h | 28177m | 6.1m/s | -45.1°C | 0.0% | 15.7hPa | 0V | 00:00:00 | 00:00:00 | 00:00:00 | |
| AUTORXJP | 2026-09-05 00:56:27 | 43.70547 | 4.99978 | 5° | 18km/h | 28005m | 4.9m/s | -45.0°C | 0.0% | 16.1hPa | 0V | 00:00:00 | 00:00:00 | 00:00:00 | |
| AUTORXJP | 2026-09-05 00:55:55 | 43.70523 | 4.99829 | 77° | 2km/h | 27832m | 6.3m/s | -45.8°C | 0.0% | 16.6hPa | 0V | 00:00:00 | 00:00:00 | 00:00:00 | |
| DB0UT-7 | 2026-09-05 00:55:29 | 43.70550 | 4.99732 | 70° | 20km/h | 27683m | 4.4m/s | 0°C | 0% | 0hPa | 0V | 00:00:00 | 00:00:00 | 00:00:00 | |
| AUTORXJP | 2026-09-05 00:55:24 | 43.70561 | 4.99689 | 86° | 18km/h | 27653m | 5.9m/s | -47.4°C | 0.0% | 17.1hPa | 0V | 00:00:00 | 00:00:00 | 00:00:00 | |
| AUTORXJP | 2026-09-05 00:54:22 | 43.70451 | 4.99492 | 24° | 9km/h | 27311m | 5.5m/s | -47.9°C | 0.0% | 18.1hPa | 0V | 00:00:00 | 00:00:00 | 00:00:00 | |
| AUTORXJP | 2026-09-05 00:53:51 | 43.70300 | 4.99465 | 342° | 20km/h | 27141m | 6.1m/s | -48.1°C | 0.0% | 18.6hPa | 0V | 00:00:00 | 00:00:00 | 00:00:00 | |
| AUTORXJP | 2026-09-05 00:53:20 | 43.70141 | 4.99547 | 342° | 29km/h | 26982m | 4.6m/s | -49.1°C | 0.0% | 19.0hPa | 0V | 00:00:00 | 00:00:00 | 00:00:00 | |
| AUTORXJP | 2026-09-05 00:52:49 | 43.70009 | 4.99550 | 329° | 15km/h | 26826m | 4.4m/s | -49.2°C | 0.0% | 19.5hPa | 0V | 00:00:00 | 00:00:00 | 00:00:00 | |
| AUTORXJP | 2026-09-05 00:52:18 | 43.69922 | 4.99683 | 287° | 26km/h | 26672m | 5.4m/s | -49.1°C | 0.0% | 20.0hPa | 0V | 00:00:00 | 00:00:00 | 00:00:00 | |
| AUTORXJP | 2026-09-05 00:51:47 | 43.69864 | 4.99805 | 75° | 11km/h | 26512m | 4.2m/s | -48.7°C | 0.0% | 20.5hPa | 0V | 00:00:00 | 00:00:00 | 00:00:00 | |
| AUTORXJP | 2026-09-05 00:51:16 | 43.69777 | 4.99832 | 345° | 13km/h | 26347m | 5.2m/s | -49.1°C | 0.0% | 21.1hPa | 0V | 00:00:00 | 00:00:00 | 00:00:00 | |
| AUTORXJP | 2026-09-05 00:50:45 | 43.69692 | 4.99941 | 177° | 2km/h | 26174m | 7.0m/s | -50.1°C | 0.0% | 21.7hPa | 0V | 00:00:00 | 00:00:00 | 00:00:00 | |
| DB0UT-7 | 2026-09-05 00:50:32 | 43.69675 | 4.99964 | 286° | 13km/h | 26106m | 4.8m/s | 0°C | 0% | 0hPa | 0V | 00:00:00 | 00:00:00 | 00:00:00 | |
| AUTORXJP | 2026-09-05 00:50:14 | 43.69622 | 4.99992 | 310° | 13km/h | 25998m | 5.0m/s | -50.5°C | 0.0% | 22.3hPa | 0V | 00:00:00 | 00:00:00 | 00:00:00 | |
| AUTORXJP | 2026-09-05 00:49:43 | 43.69568 | 5.00124 | 284° | 18km/h | 25819m | 6.5m/s | -50.7°C | 0.0% | 22.9hPa | 0V | 00:00:00 | 00:00:00 | 00:00:00 | |
| AUTORXJP | 2026-09-05 00:49:11 | 43.69501 | 5.00243 | 303° | 20km/h | 25650m | 5.6m/s | -51.1°C | 0.0% | 23.5hPa | 0V | 00:00:00 | 00:00:00 | 00:00:00 | |
| AUTORXJP | 2026-09-05 00:48:40 | 43.69473 | 5.00445 | 246° | 20km/h | 25487m | 4.8m/s | -51.2°C | 0.0% | 24.2hPa | 0V | 00:00:00 | 00:00:00 | 00:00:00 | |
| AUTORXJP | 2026-09-05 00:48:09 | 43.69578 | 5.00592 | 207° | 18km/h | 25322m | 5.9m/s | -51.3°C | 0.0% | 24.8hPa | 0V | 00:00:00 | 00:00:00 | 00:00:00 | |
| AUTORXJP | 2026-09-05 00:47:38 | 43.69626 | 5.00564 | 104° | 7km/h | 25161m | 5.4m/s | -51.2°C | 0.0% | 25.5hPa | 0V | 00:00:00 | 00:00:00 | 00:00:00 | |
| AUTORXJP | 2026-09-05 00:47:07 | 43.69546 | 5.00502 | 63° | 9km/h | 25002m | 5.1m/s | -51.8°C | 0.0% | 26.1hPa | 0V | 00:00:00 | 00:00:00 | 00:00:00 | |
| DB0UT-7 | 2026-09-05 00:46:54 | 43.69519 | 5.00490 | 289° | 11km/h | 24937m | 4.8m/s | 0°C | 0% | 0hPa | 0V | 00:00:00 | 00:00:00 | 00:00:00 | |
| AUTORXJP | 2026-09-05 00:46:36 | 43.69486 | 5.00529 | 290° | 13km/h | 24835m | 5.0m/s | -52.7°C | 0.0% | 26.8hPa | 0V | 00:00:00 | 00:00:00 | 00:00:00 | |
| DB0UT-7 | 2026-09-05 00:46:24 | 43.69476 | 5.00564 | 285° | 16km/h | 24774m | 5.8m/s | 0°C | 0% | 0hPa | 0V | 00:00:00 | 00:00:00 | 00:00:00 | |
| AUTORXJP | 2026-09-05 00:46:05 | 43.69458 | 5.00616 | 39° | 2km/h | 24664m | 5.6m/s | -52.6°C | 0.0% | 27.6hPa | 0V | 00:00:00 | 00:00:00 | 00:00:00 | |
| AUTORXJP | 2026-09-05 00:45:34 | 43.69455 | 5.00727 | 193° | 7km/h | 24493m | 5.9m/s | -53.2°C | 0.0% | 28.3hPa | 0V | 00:00:00 | 00:00:00 | 00:00:00 | |
| AUTORXJP | 2026-09-05 00:45:03 | 43.69490 | 5.00798 | 296° | 15km/h | 24323m | 5.8m/s | -53.0°C | 0.0% | 29.1hPa | 0V | 00:00:00 | 00:00:00 | 00:00:00 | |
| AUTORXJP | 2026-09-05 00:44:32 | 43.69533 | 5.00913 | 228° | 22km/h | 24152m | 6.8m/s | -53.0°C | 0.0% | 29.9hPa | 0V | 00:00:00 | 00:00:00 | 00:00:00 | |
| AUTORXJP | 2026-09-05 00:44:01 | 43.69690 | 5.01040 | 190° | 18km/h | 23990m | 4.6m/s | -53.3°C | 0.0% | 30.7hPa | 0V | 00:00:00 | 00:00:00 | 00:00:00 | |
| AUTORXJP | 2026-09-05 00:43:30 | 43.69751 | 5.01067 | 169° | 7km/h | 23831m | 4.2m/s | -53.8°C | 0.0% | 31.5hPa | 0V | 00:00:00 | 00:00:00 | 00:00:00 | |
| AUTORXJP | 2026-09-05 00:42:59 | 43.69740 | 5.01121 | 289° | 22km/h | 23681m | 4.8m/s | -53.7°C | 0.0% | 32.2hPa | 0V | 00:00:00 | 00:00:00 | 00:00:00 | |
| AUTORXJP | 2026-09-05 00:42:27 | 43.69674 | 5.01304 | 312° | 26km/h | 23535m | 5.9m/s | -53.5°C | 0.0% | 33.0hPa | 0V | 00:00:00 | 00:00:00 | 00:00:00 | |
| AUTORXJP | 2026-09-05 00:41:56 | 43.69656 | 5.01454 | 284° | 2km/h | 23389m | 6.0m/s | -53.5°C | 0.0% | 33.8hPa | 0V | 00:00:00 | 00:00:00 | 00:00:00 | |
| AUTORXJP | 2026-09-05 00:41:25 | 43.69729 | 5.01582 | 210° | 13km/h | 23233m | 5.5m/s | -54.1°C | 0.0% | 34.6hPa | 0V | 00:00:00 | 00:00:00 | 00:00:00 | |
| AUTORXJP | 2026-09-05 00:40:54 | 43.69838 | 5.01646 | 296° | 7km/h | 23084m | 5.4m/s | -54.5°C | 0.0% | 35.5hPa | 0V | 00:00:00 | 00:00:00 | 00:00:00 | |
| AUTORXJP | 2026-09-05 00:40:23 | 43.69897 | 5.01792 | 255° | 16km/h | 22931m | 5.7m/s | -55.2°C | 0.0% | 36.4hPa | 0V | 00:00:00 | 00:00:00 | 00:00:00 | |
| AUTORXJP | 2026-09-05 00:39:52 | 43.69982 | 5.01953 | 155° | 18km/h | 22776m | 5.0m/s | -54.7°C | 0.0% | 37.3hPa | 0V | 00:00:00 | 00:00:00 | 00:00:00 | |
| AUTORXJP | 2026-09-05 00:39:21 | 43.70122 | 5.01991 | 178° | 26km/h | 22619m | 4.7m/s | -55.0°C | 0.0% | 38.2hPa | 0V | 00:00:00 | 00:00:00 | 00:00:00 | |
| AUTORXJP | 2026-09-05 00:38:50 | 43.70233 | 5.02048 | 214° | 11km/h | 22463m | 5.7m/s | -55.0°C | 0.0% | 39.2hPa | 0V | 00:00:00 | 00:00:00 | 00:00:00 | |
| AUTORXJP | 2026-09-05 00:38:19 | 43.70342 | 5.02002 | 134° | 18km/h | 22307m | 3.9m/s | -55.2°C | 0.0% | 40.2hPa | 0V | 00:00:00 | 00:00:00 | 00:00:00 | |
| AUTORXJP | 2026-09-05 00:37:48 | 43.70407 | 5.01881 | 136° | 20km/h | 22152m | 4.6m/s | -55.1°C | 0.0% | 41.2hPa | 0V | 00:00:00 | 00:00:00 | 00:00:00 | |
| AUTORXJP | 2026-09-05 00:37:17 | 43.70429 | 5.01803 | 120° | 5km/h | 21999m | 5.6m/s | -55.3°C | 0.0% | 42.2hPa | 0V | 00:00:00 | 00:00:00 | 00:00:00 | |
| AUTORXJP | 2026-09-05 00:36:46 | 43.70437 | 5.01715 | 140° | 7km/h | 21841m | 5.9m/s | -55.4°C | 0.0% | 43.3hPa | 0V | 00:00:00 | 00:00:00 | 00:00:00 | |
| AUTORXJP | 2026-09-05 00:36:14 | 43.70461 | 5.01719 | 177° | 7km/h | 21686m | 4.7m/s | -55.5°C | 0.0% | 44.4hPa | 0V | 00:00:00 | 00:00:00 | 00:00:00 | |
| AUTORXJP | 2026-09-05 00:35:43 | 43.70462 | 5.01598 | 57° | 20km/h | 21537m | 4.5m/s | -56.3°C | 0.0% | 45.5hPa | 0V | 00:00:00 | 00:00:00 | 00:00:00 | |
| AUTORXJP | 2026-09-05 00:35:12 | 43.70423 | 5.01480 | 130° | 9km/h | 21382m | 4.0m/s | -56.5°C | 0.0% | 46.6hPa | 0V | 00:00:00 | 00:00:00 | 00:00:00 | |
| AUTORXJP | 2026-09-05 00:34:41 | 43.70451 | 5.01374 | 72° | 18km/h | 21234m | 4.5m/s | -56.6°C | 0.0% | 47.7hPa | 0V | 00:00:00 | 00:00:00 | 00:00:00 | |
| AUTORXJP | 2026-09-05 00:34:11 | 43.70460 | 5.01299 | 178° | 5km/h | 21092m | 3.6m/s | -56.7°C | 0.0% | 48.8hPa | 0V | 00:00:00 | 00:00:00 | 00:00:00 | |
| AUTORXJP | 2026-09-05 00:33:39 | 43.70529 | 5.01235 | 153° | 15km/h | 20945m | 3.8m/s | -56.9°C | 0.0% | 50.0hPa | 0V | 00:00:00 | 00:00:00 | 00:00:00 | |
| AUTORXJP | 2026-09-05 00:33:08 | 43.70613 | 5.01063 | 94° | 24km/h | 20808m | 4.4m/s | -57.6°C | 0.0% | 51.1hPa | 0V | 00:00:00 | 00:00:00 | 00:00:00 | |
| AUTORXJP | 2026-09-05 00:32:32 | 43.70645 | 5.00804 | 100° | 11km/h | 20645m | 3.4m/s | -58.2°C | 0.0% | 52.4hPa | 0V | 00:00:00 | 00:00:00 | 00:00:00 | |
| AUTORXJP | 2026-09-05 00:32:01 | 43.70621 | 5.00689 | 118° | 7km/h | 20507m | 5.9m/s | -58.3°C | 0.0% | 53.6hPa | 0V | 00:00:00 | 00:00:00 | 00:00:00 | |
| AUTORXJP | 2026-09-05 00:31:30 | 43.70637 | 5.00671 | 135° | 16km/h | 20362m | 4.6m/s | -57.6°C | 0.0% | 54.9hPa | 0V | 00:00:00 | 00:00:00 | 00:00:00 | |
| AUTORXJP | 2026-09-05 00:30:59 | 43.70748 | 5.00632 | 166° | 15km/h | 20214m | 4.8m/s | -56.9°C | 0.0% | 56.2hPa | 0V | 00:00:00 | 00:00:00 | 00:00:00 | |
| AUTORXJP | 2026-09-05 00:30:28 | 43.70947 | 5.00598 | 168° | 27km/h | 20063m | 5.4m/s | -57.3°C | 0.0% | 57.6hPa | 0V | 00:00:00 | 00:00:00 | 00:00:00 | |
| AUTORXJP | 2026-09-05 00:29:57 | 43.71140 | 5.00446 | 138° | 35km/h | 19912m | 4.8m/s | -57.8°C | 0.0% | 59.0hPa | 0V | 00:00:00 | 00:00:00 | 00:00:00 | |
| AUTORXJP | 2026-09-05 00:28:55 | 43.71237 | 5.00043 | 56° | 13km/h | 19609m | 3.8m/s | -58.1°C | 0.0% | 62.0hPa | 0V | 00:00:00 | 00:00:00 | 00:00:00 | |
| AUTORXJP | 2026-09-05 00:28:24 | 43.71254 | 5.00019 | 193° | 7km/h | 19462m | 4.6m/s | -58.2°C | 0.0% | 63.4hPa | 0V | 00:00:00 | 00:00:00 | 00:00:00 | |
| AUTORXJP | 2026-09-05 00:27:52 | 43.71345 | 5.00002 | 190° | 13km/h | 19317m | 5.3m/s | -58.5°C | 0.0% | 64.9hPa | 0V | 00:00:00 | 00:00:00 | 00:00:00 | |
| AUTORXJP | 2026-09-05 00:27:21 | 43.71471 | 4.99952 | 156° | 16km/h | 19174m | 4.0m/s | -58.7°C | 0.2% | 66.4hPa | 0V | 00:00:00 | 00:00:00 | 00:00:00 | |
| AUTORXJP | 2026-09-05 00:26:50 | 43.71559 | 4.99730 | 97° | 20km/h | 19027m | 4.0m/s | -58.6°C | 0.4% | 68.0hPa | 0V | 00:00:00 | 00:00:00 | 00:00:00 | |
| AUTORXJP | 2026-09-05 00:26:19 | 43.71540 | 4.99556 | 65° | 7km/h | 18884m | 6.0m/s | -58.6°C | 0.6% | 69.6hPa | 0V | 00:00:00 | 00:00:00 | 00:00:00 | |
| AUTORXJP | 2026-09-05 00:25:48 | 43.71500 | 4.99576 | 293° | 5km/h | 18740m | 5.2m/s | -58.9°C | 1.0% | 71.2hPa | 0V | 00:00:00 | 00:00:00 | 00:00:00 | |
| AUTORXJP | 2026-09-05 00:25:17 | 43.71534 | 4.99578 | 119° | 9km/h | 18602m | 4.4m/s | -58.2°C | 1.2% | 72.9hPa | 0V | 00:00:00 | 00:00:00 | 00:00:00 | |
| AUTORXJP | 2026-09-05 00:24:46 | 43.71607 | 4.99475 | 115° | 20km/h | 18466m | 3.9m/s | -58.7°C | 1.4% | 74.5hPa | 0V | 00:00:00 | 00:00:00 | 00:00:00 | |
| AUTORXJP | 2026-09-05 00:24:15 | 43.71663 | 4.99197 | 107° | 22km/h | 18336m | 3.5m/s | -59.6°C | 1.6% | 76.0hPa | 0V | 00:00:00 | 00:00:00 | 00:00:00 | |
| AUTORXJP | 2026-09-05 00:23:44 | 43.71665 | 4.99001 | 88° | 18km/h | 18204m | 4.8m/s | -60.4°C | 1.9% | 77.7hPa | 0V | 00:00:00 | 00:00:00 | 00:00:00 | |
| AUTORXJP | 2026-09-05 00:23:13 | 43.71728 | 4.98813 | 111° | 24km/h | 18065m | 5.6m/s | -60.1°C | 2.3% | 79.5hPa | 0V | 00:00:00 | 00:00:00 | 00:00:00 | |
| AUTORXJP | 2026-09-05 00:22:11 | 43.72048 | 4.98300 | 118° | 40km/h | 17795m | 4.2m/s | -61.4°C | 2.6% | 83.0hPa | 0V | 00:00:00 | 00:00:00 | 00:00:00 | |
| AUTORXJP | 2026-09-05 00:21:08 | 43.72327 | 4.97168 | 91° | 60km/h | 17520m | 3.6m/s | -62.2°C | 3.0% | 86.8hPa | 0V | 00:00:00 | 00:00:00 | 00:00:00 | |
| AUTORXJP | 2026-09-05 00:20:37 | 43.72356 | 4.96546 | 84° | 53km/h | 17391m | 3.6m/s | -62.9°C | 3.3% | 88.7hPa | 0V | 00:00:00 | 00:00:00 | 00:00:00 | |
| AUTORXJP | 2026-09-05 00:20:06 | 43.72343 | 4.96020 | 88° | 47km/h | 17252m | 4.5m/s | -62.6°C | 3.6% | 90.8hPa | 0V | 00:00:00 | 00:00:00 | 00:00:00 | |
| AUTORXJP | 2026-09-05 00:19:35 | 43.72325 | 4.95564 | 80° | 37km/h | 17107m | 5.7m/s | -62.5°C | 3.9% | 92.9hPa | 0V | 00:00:00 | 00:00:00 | 00:00:00 | |
| AUTORXJP | 2026-09-05 00:19:04 | 43.72333 | 4.95186 | 89° | 33km/h | 16959m | 5.1m/s | -62.3°C | 4.4% | 95.2hPa | 0V | 00:00:00 | 00:00:00 | 00:00:00 | |
| AUTORXJP | 2026-09-05 00:18:33 | 43.72409 | 4.94808 | 99° | 33km/h | 16802m | 4.6m/s | -61.8°C | 4.8% | 97.7hPa | 0V | 00:00:00 | 00:00:00 | 00:00:00 | |
| AUTORXJP | 2026-09-05 00:18:02 | 43.72378 | 4.94419 | 70° | 37km/h | 16650m | 5.3m/s | -62.0°C | 5.1% | 100.1hPa | 0V | 00:00:00 | 00:00:00 | 00:00:00 | |
| AUTORXJP | 2026-09-05 00:17:31 | 43.72369 | 4.94060 | 98° | 26km/h | 16513m | 4.7m/s | -62.0°C | 5.4% | 102.4hPa | 0V | 00:00:00 | 00:00:00 | 00:00:00 | |
| AUTORXJP | 2026-09-05 00:17:00 | 43.72403 | 4.93740 | 105° | 33km/h | 16390m | 4.2m/s | -62.2°C | 5.6% | 104.5hPa | 0V | 00:00:00 | 00:00:00 | 00:00:00 | |
| AUTORXJP | 2026-09-05 00:16:29 | 43.72399 | 4.93448 | 84° | 26km/h | 16271m | 3.7m/s | -62.3°C | 5.6% | 106.5hPa | 0V | 00:00:00 | 00:00:00 | 00:00:00 | |
| AUTORXJP | 2026-09-05 00:15:58 | 43.72411 | 4.93119 | 111° | 35km/h | 16155m | 3.6m/s | -62.9°C | 5.5% | 108.5hPa | 0V | 00:00:00 | 00:00:00 | 00:00:00 | |
| AUTORXJP | 2026-09-05 00:15:26 | 43.72414 | 4.92761 | 88° | 35km/h | 16034m | 5.1m/s | -62.9°C | 5.7% | 110.7hPa | 0V | 00:00:00 | 00:00:00 | 00:00:00 | |
| AUTORXJP | 2026-09-05 00:14:55 | 43.72471 | 4.92408 | 117° | 29km/h | 15905m | 3.6m/s | -62.1°C | 5.9% | 113.1hPa | 0V | 00:00:00 | 00:00:00 | 00:00:00 | |
| AUTORXJP | 2026-09-05 00:14:24 | 43.72598 | 4.92028 | 111° | 46km/h | 15769m | 3.5m/s | -62.4°C | 6.2% | 115.6hPa | 0V | 00:00:00 | 00:00:00 | 00:00:00 | |
| AUTORXJP | 2026-09-05 00:13:53 | 43.72693 | 4.91536 | 95° | 51km/h | 15627m | 4.2m/s | -62.7°C | 6.5% | 118.3hPa | 0V | 00:00:00 | 00:00:00 | 00:00:00 | |
| AUTORXJP | 2026-09-05 00:13:22 | 43.72701 | 4.91052 | 88° | 37km/h | 15489m | 4.7m/s | -62.9°C | 7.0% | 121.1hPa | 0V | 00:00:00 | 00:00:00 | 00:00:00 | |
| AUTORXJP | 2026-09-05 00:12:51 | 43.72727 | 4.90639 | 103° | 37km/h | 15347m | 3.6m/s | -62.7°C | 7.5% | 123.8hPa | 0V | 00:00:00 | 00:00:00 | 00:00:00 | |
| AUTORXJP | 2026-09-05 00:12:20 | 43.72844 | 4.90181 | 110° | 51km/h | 15211m | 5.4m/s | -62.9°C | 8.2% | 126.6hPa | 0V | 00:00:00 | 00:00:00 | 00:00:00 | |
| AUTORXJP | 2026-09-05 00:11:49 | 43.72962 | 4.89705 | 111° | 49km/h | 15086m | 4.6m/s | -62.6°C | 9.1% | 129.3hPa | 0V | 00:00:00 | 00:00:00 | 00:00:00 | |
| AUTORXJP | 2026-09-05 00:11:18 | 43.73080 | 4.89223 | 106° | 46km/h | 14958m | 3.1m/s | -62.5°C | 10.1% | 132.0hPa | 0V | 00:00:00 | 00:00:00 | 00:00:00 | |
| AUTORXJP | 2026-09-05 00:10:47 | 43.73156 | 4.88718 | 102° | 46km/h | 14834m | 3.4m/s | -62.3°C | 11.5% | 134.7hPa | 0V | 00:00:00 | 00:00:00 | 00:00:00 | |
| AUTORXJP | 2026-09-05 00:10:16 | 43.73248 | 4.88249 | 101° | 46km/h | 14702m | 3.9m/s | -61.9°C | 13.3% | 137.6hPa | 0V | 00:00:00 | 00:00:00 | 00:00:00 | |
| AUTORXJP | 2026-09-05 00:09:45 | 43.73283 | 4.87756 | 89° | 42km/h | 14568m | 3.9m/s | -61.6°C | 15.1% | 140.7hPa | 0V | 00:00:00 | 00:00:00 | 00:00:00 | |
| AUTORXJP | 2026-09-05 00:09:14 | 43.73226 | 4.87221 | 74° | 49km/h | 14433m | 3.6m/s | -62.0°C | 16.2% | 143.8hPa | 0V | 00:00:00 | 00:00:00 | 00:00:00 | |
| AUTORXJP | 2026-09-05 00:08:42 | 43.73122 | 4.86775 | 75° | 40km/h | 14305m | 3.7m/s | -63.7°C | 16.5% | 146.8hPa | 0V | 00:00:00 | 00:00:00 | 00:00:00 | |
| AUTORXJP | 2026-09-05 00:08:17 | 43.73037 | 4.86382 | 82° | 42km/h | 14170m | 4.1m/s | -63.4°C | 16.6% | 150.2hPa | 0V | 00:00:00 | 00:00:00 | 00:00:00 | |
| AUTORXJP | 2026-09-05 00:07:40 | 43.72992 | 4.85920 | 85° | 44km/h | 14035m | 5.2m/s | -62.7°C | 16.6% | 153.4hPa | 0V | 00:00:00 | 00:00:00 | 00:00:00 | |
| AUTORXJP | 2026-09-05 00:07:09 | 43.72960 | 4.85324 | 83° | 60km/h | 13898m | 3.7m/s | -62.6°C | 16.4% | 156.9hPa | 0V | 00:00:00 | 00:00:00 | 00:00:00 | |
| AUTORXJP | 2026-09-05 00:06:38 | 43.72951 | 4.84780 | 99° | 42km/h | 13769m | 3.6m/s | -61.8°C | 16.4% | 160.2hPa | 0V | 00:00:00 | 00:00:00 | 00:00:00 | |
| AUTORXJP | 2026-09-05 00:06:07 | 43.72978 | 4.84298 | 97° | 40km/h | 13641m | 4.8m/s | -61.1°C | 16.5% | 163.6hPa | 0V | 00:00:00 | 00:00:00 | 00:00:00 | |
| AUTORXJP | 2026-09-05 00:05:36 | 43.72981 | 4.83930 | 86° | 27km/h | 13513m | 3.7m/s | -60.3°C | 16.5% | 167.0hPa | 0V | 00:00:00 | 00:00:00 | 00:00:00 | |
| AUTORXJP | 2026-09-05 00:05:05 | 43.72979 | 4.83580 | 88° | 37km/h | 13388m | 4.4m/s | -60.0°C | 16.1% | 170.4hPa | 0V | 00:00:00 | 00:00:00 | 00:00:00 | |
| AUTORXJP | 2026-09-05 00:04:34 | 43.72949 | 4.83118 | 89° | 46km/h | 13243m | 3.8m/s | -59.1°C | 15.8% | 174.4hPa | 0V | 00:00:00 | 00:00:00 | 00:00:00 | |
| AUTORXJP | 2026-09-05 00:04:03 | 43.72956 | 4.82656 | 83° | 44km/h | 13096m | 5.2m/s | -57.7°C | 16.2% | 178.6hPa | 0V | 00:00:00 | 00:00:00 | 00:00:00 | |
| AUTORXJP | 2026-09-05 00:03:32 | 43.72992 | 4.82169 | 91° | 44km/h | 12943m | 3.5m/s | -56.7°C | 17.0% | 183.0hPa | 0V | 00:00:00 | 00:00:00 | 00:00:00 | |
| AUTORXJP | 2026-09-05 00:02:30 | 43.73173 | 4.81053 | 105° | 53km/h | 12675m | 3.5m/s | -56.2°C | 18.4% | 191.0hPa | 0V | 00:00:00 | 00:00:00 | 00:00:00 | |
| AUTORXJP | 2026-09-05 00:01:31 | 43.73440 | 4.79969 | 113° | 47km/h | 12429m | 2.8m/s | -55.9°C | 17.5% | 198.7hPa | 0V | 00:00:00 | 00:00:00 | 00:00:00 | |
| AUTORXJP | 2026-09-05 00:00:57 | 43.73571 | 4.79489 | 103° | 35km/h | 12299m | 4.5m/s | -54.8°C | 16.8% | 202.7hPa | 0V | 00:00:00 | 00:00:00 | 00:00:00 | |
| AUTORXJP | 2026-09-05 00:00:26 | 43.73708 | 4.79028 | 113° | 42km/h | 12164m | 4.6m/s | -53.9°C | 16.8% | 207.1hPa | 0V | 00:00:00 | 00:00:00 | 00:00:00 | |
| AUTORXJP | 2026-09-04 23:59:54 | 43.73853 | 4.78595 | 114° | 42km/h | 12027m | 5.1m/s | -53.5°C | 16.7% | 211.7hPa | 0V | 00:00:00 | 00:00:00 | 00:00:00 | |
| AUTORXJP | 2026-09-04 23:59:23 | 43.73966 | 4.78212 | 113° | 40km/h | 11882m | 4.2m/s | -52.2°C | 17.1% | 216.4hPa | 0V | 00:00:00 | 00:00:00 | 00:00:00 | |
| AUTORXJP | 2026-09-04 23:58:52 | 43.74115 | 4.77839 | 109° | 37km/h | 11748m | 3.5m/s | -51.6°C | 17.7% | 221.0hPa | 0V | 00:00:00 | 00:00:00 | 00:00:00 | |
| AUTORXJP | 2026-09-04 23:58:21 | 43.74258 | 4.77474 | 109° | 27km/h | 11612m | 4.8m/s | -50.8°C | 17.9% | 225.6hPa | 0V | 00:00:00 | 00:00:00 | 00:00:00 | |
| AUTORXJP | 2026-09-04 23:57:50 | 43.74412 | 4.77085 | 111° | 44km/h | 11468m | 5.2m/s | -49.7°C | 18.6% | 230.8hPa | 0V | 00:00:00 | 00:00:00 | 00:00:00 | |
| AUTORXJP | 2026-09-04 23:57:19 | 43.74564 | 4.76593 | 110° | 49km/h | 11329m | 5.4m/s | -48.9°C | 19.6% | 235.7hPa | 0V | 00:00:00 | 00:00:00 | 00:00:00 | |
| AUTORXJP | 2026-09-04 23:56:48 | 43.74685 | 4.76102 | 104° | 44km/h | 11208m | 4.1m/s | -48.6°C | 20.5% | 240.1hPa | 0V | 00:00:00 | 00:00:00 | 00:00:00 | |
| AUTORXJP | 2026-09-04 23:56:17 | 43.74770 | 4.75664 | 107° | 40km/h | 11092m | 3.9m/s | -47.7°C | 20.1% | 244.4hPa | 0V | 00:00:00 | 00:00:00 | 00:00:00 | |
| AUTORXJP | 2026-09-04 23:55:46 | 43.74839 | 4.75212 | 100° | 44km/h | 10972m | 3.6m/s | -46.5°C | 20.2% | 248.8hPa | 0V | 00:00:00 | 00:00:00 | 00:00:00 | |
| AUTORXJP | 2026-09-04 23:55:15 | 43.74900 | 4.74742 | 99° | 44km/h | 10853m | 3.6m/s | -45.8°C | 22.1% | 253.4hPa | 0V | 00:00:00 | 00:00:00 | 00:00:00 | |
| AUTORXJP | 2026-09-04 23:54:43 | 43.74954 | 4.74276 | 97° | 42km/h | 10729m | 3.4m/s | -45.5°C | 22.3% | 258.2hPa | 0V | 00:00:00 | 00:00:00 | 00:00:00 | |
| AUTORXJP | 2026-09-04 23:54:12 | 43.75013 | 4.73856 | 105° | 40km/h | 10603m | 4.4m/s | -44.6°C | 21.2% | 263.1hPa | 0V | 00:00:00 | 00:00:00 | 00:00:00 | |
| AUTORXJP | 2026-09-04 23:53:41 | 43.75091 | 4.73398 | 99° | 44km/h | 10472m | 3.9m/s | -43.4°C | 20.6% | 268.3hPa | 0V | 00:00:00 | 00:00:00 | 00:00:00 | |
| AUTORXJP | 2026-09-04 23:53:10 | 43.75156 | 4.72918 | 95° | 47km/h | 10343m | 4.5m/s | -42.4°C | 20.8% | 273.6hPa | 0V | 00:00:00 | 00:00:00 | 00:00:00 | |
| AUTORXJP | 2026-09-04 23:52:39 | 43.75209 | 4.72425 | 101° | 46km/h | 10210m | 5.1m/s | -41.4°C | 21.4% | 279.0hPa | 0V | 00:00:00 | 00:00:00 | 00:00:00 | |
| AUTORXJP | 2026-09-04 23:52:08 | 43.75297 | 4.71947 | 103° | 47km/h | 10074m | 4.6m/s | -40.2°C | 21.3% | 284.8hPa | 0V | 00:00:00 | 00:00:00 | 00:00:00 | |
| AUTORXJP | 2026-09-04 23:51:37 | 43.75416 | 4.71433 | 110° | 53km/h | 9936m | 4.6m/s | -39.3°C | 23.0% | 290.5hPa | 0V | 00:00:00 | 00:00:00 | 00:00:00 | |
| AUTORXJP | 2026-09-04 23:51:06 | 43.75565 | 4.70815 | 107° | 62km/h | 9802m | 3.6m/s | -38.7°C | 25.6% | 296.3hPa | 0V | 00:00:00 | 00:00:00 | 00:00:00 | |
| AUTORXJP | 2026-09-04 23:50:35 | 43.75706 | 4.70167 | 101° | 58km/h | 9676m | 4.8m/s | -37.9°C | 25.4% | 301.8hPa | 0V | 00:00:00 | 00:00:00 | 00:00:00 | |
| AUTORXJP | 2026-09-04 23:50:04 | 43.75833 | 4.69521 | 104° | 57km/h | 9556m | 4.1m/s | -37.3°C | 29.2% | 307.2hPa | 0V | 00:00:00 | 00:00:00 | 00:00:00 | |
| AUTORXJP | 2026-09-04 23:49:33 | 43.75958 | 4.68873 | 104° | 64km/h | 9440m | 4.3m/s | -36.3°C | 30.7% | 312.4hPa | 0V | 00:00:00 | 00:00:00 | 00:00:00 | |
| AUTORXJP | 2026-09-04 23:49:02 | 43.76076 | 4.68199 | 101° | 57km/h | 9327m | 3.3m/s | -35.4°C | 28.8% | 317.5hPa | 0V | 00:00:00 | 00:00:00 | 00:00:00 | |
| AUTORXJP | 2026-09-04 23:48:31 | 43.76187 | 4.67537 | 105° | 58km/h | 9220m | 3.0m/s | -34.4°C | 27.9% | 322.5hPa | 0V | 00:00:00 | 00:00:00 | 00:00:00 | |
| AUTORXJP | 2026-09-04 23:47:59 | 43.76291 | 4.66881 | 101° | 60km/h | 9115m | 3.8m/s | -33.5°C | 26.8% | 327.5hPa | 0V | 00:00:00 | 00:00:00 | 00:00:00 | |
| AUTORXJP | 2026-09-04 23:47:28 | 43.76389 | 4.66230 | 103° | 60km/h | 9008m | 3.1m/s | -32.6°C | 27.1% | 332.4hPa | 0V | 00:00:00 | 00:00:00 | 00:00:00 | |
| AUTORXJP | 2026-09-04 23:46:57 | 43.76473 | 4.65582 | 99° | 66km/h | 8911m | 3.9m/s | -31.7°C | 25.7% | 337.2hPa | 0V | 00:00:00 | 00:00:00 | 00:00:00 | |
| AUTORXJP | 2026-09-04 23:46:26 | 43.76562 | 4.64924 | 104° | 58km/h | 8803m | 3.5m/s | -30.7°C | 24.4% | 342.3hPa | 0V | 00:00:00 | 00:00:00 | 00:00:00 | |
| AUTORXJP | 2026-09-04 23:45:55 | 43.76660 | 4.64282 | 104° | 60km/h | 8697m | 4.0m/s | -29.7°C | 23.6% | 347.4hPa | 0V | 00:00:00 | 00:00:00 | 00:00:00 | |
| AUTORXJP | 2026-09-04 23:45:24 | 43.76755 | 4.63641 | 103° | 57km/h | 8593m | 4.7m/s | -28.8°C | 26.7% | 352.6hPa | 0V | 00:00:00 | 00:00:00 | 00:00:00 | |
| AUTORXJP | 2026-09-04 23:44:53 | 43.76837 | 4.63003 | 99° | 58km/h | 8480m | 4.2m/s | -27.9°C | 25.8% | 358.2hPa | 0V | 00:00:00 | 00:00:00 | 00:00:00 | |
| AUTORXJP | 2026-09-04 23:44:22 | 43.76922 | 4.62368 | 104° | 58km/h | 8364m | 3.0m/s | -26.9°C | 26.0% | 364.0hPa | 0V | 00:00:00 | 00:00:00 | 00:00:00 | |
| AUTORXJP | 2026-09-04 23:43:51 | 43.76990 | 4.61727 | 95° | 62km/h | 8252m | 3.6m/s | -25.9°C | 26.0% | 369.8hPa | 0V | 00:00:00 | 00:00:00 | 00:00:00 | |
| AUTORXJP | 2026-09-04 23:43:20 | 43.77054 | 4.61091 | 99° | 55km/h | 8131m | 4.5m/s | -24.9°C | 25.4% | 376.0hPa | 0V | 00:00:00 | 00:00:00 | 00:00:00 | |
| AUTORXJP | 2026-09-04 23:42:49 | 43.77119 | 4.60455 | 97° | 55km/h | 8007m | 3.4m/s | -23.9°C | 25.2% | 382.4hPa | 0V | 00:00:00 | 00:00:00 | 00:00:00 | |
| AUTORXJP | 2026-09-04 23:42:18 | 43.77191 | 4.59846 | 96° | 51km/h | 7882m | 5.0m/s | -22.9°C | 25.7% | 389.1hPa | 0V | 00:00:00 | 00:00:00 | 00:00:00 | |
| AUTORXJP | 2026-09-04 23:41:46 | 43.77255 | 4.59268 | 95° | 53km/h | 7757m | 5.2m/s | -21.9°C | 24.4% | 395.9hPa | 0V | 00:00:00 | 00:00:00 | 00:00:00 | |
| AUTORXJP | 2026-09-04 23:40:44 | 43.77340 | 4.58148 | 94° | 47km/h | 7497m | 4.4m/s | -19.5°C | 23.3% | 410.0hPa | 0V | 00:00:00 | 00:00:00 | 00:00:00 | |
| AUTORXJP | 2026-09-04 23:40:15 | 43.77380 | 4.57614 | 99° | 47km/h | 7371m | 3.5m/s | -18.3°C | 22.6% | 417.2hPa | 0V | 00:00:00 | 00:00:00 | 00:00:00 |